Time;durP1;ratioP1;P1;durP2;ratioP2;P2;SDS_P1;SDS_P2;PMS_P1;PMS_P2;Temp;Humidity;BMP_temperature;BMP_pressure;BME280_temperature;BME280_humidity;BME280_pressure;Samples;Min_cycle;Max_cycle;Signal;HPM_P1;HPM_P2
2021/11/11 00:01:05;;;;;;;21.33;9.38;;;-0.40;99.90;;;;;;4964349;28;20027;-68
2021/11/11 00:03:32;;;;;;;19.90;8.25;;;-0.50;99.90;;;;;;4981556;28;20114;-68
2021/11/11 00:06:00;;;;;;;19.98;8.98;;;-0.50;99.90;;;;;;4964093;28;20093;-68
2021/11/11 00:08:27;;;;;;;19.88;9.32;;;-0.50;99.90;;;;;;4981929;28;20034;-68
2021/11/11 00:10:55;;;;;;;22.98;9.65;;;-0.60;99.90;;;;;;4981177;28;20027;-68
2021/11/11 00:13:22;;;;;;;24.80;9.70;;;-0.60;99.90;;;;;;4981676;28;20023;-68
2021/11/11 00:15:50;;;;;;;23.52;10.07;;;-0.60;99.90;;;;;;4981629;28;20031;-68
2021/11/11 00:18:19;;;;;;;21.45;9.57;;;-0.50;99.90;;;;;;4982436;28;20026;-68
2021/11/11 00:20:46;;;;;;;25.25;9.80;;;-0.50;99.90;;;;;;4981932;28;20030;-68
2021/11/11 00:23:14;;;;;;;29.65;10.90;;;-0.50;99.90;;;;;;4982555;28;20439;-68
2021/11/11 00:25:42;;;;;;;28.60;11.00;;;-0.50;99.90;;;;;;4981780;28;20037;-68
2021/11/11 00:28:10;;;;;;;24.83;9.77;;;-0.50;99.90;;;;;;4982358;28;20348;-68
2021/11/11 00:30:38;;;;;;;26.23;9.50;;;-0.50;99.90;;;;;;4981764;28;20046;-68
2021/11/11 00:33:05;;;;;;;27.52;10.30;;;-0.50;99.90;;;;;;4982067;28;20316;-68
2021/11/11 00:35:33;;;;;;;23.73;9.73;;;-0.60;99.90;;;;;;4964451;28;20121;-68
2021/11/11 00:38:01;;;;;;;26.40;10.23;;;-0.60;99.90;;;;;;4981683;28;20027;-68
2021/11/11 00:40:29;;;;;;;25.63;11.45;;;-0.60;99.90;;;;;;4963468;28;20037;-68
2021/11/11 00:43:01;;;;;;;26.38;10.30;;;-0.60;99.90;;;;;;4981321;28;20434;-68
2021/11/11 00:45:29;;;;;;;22.83;9.55;;;-0.50;99.90;;;;;;4980272;28;20054;-68
2021/11/11 00:47:57;;;;;;;27.20;10.40;;;-0.50;99.90;;;;;;4980591;28;20101;-68
2021/11/11 00:50:27;;;;;;;29.33;9.65;;;-0.50;99.90;;;;;;4980949;28;20110;-68
2021/11/11 00:52:54;;;;;;;24.92;9.85;;;-0.50;99.90;;;;;;4980472;28;20026;-68
2021/11/11 00:55:22;;;;;;;20.00;9.38;;;-0.40;99.90;;;;;;4980935;28;20076;-68
2021/11/11 00:57:49;;;;;;;24.33;9.80;;;-0.50;99.90;;;;;;4980673;28;20377;-68
2021/11/11 01:00:18;;;;;;;21.40;9.45;;;-0.50;99.90;;;;;;4980487;28;20089;-68
2021/11/11 01:02:47;;;;;;;22.00;8.95;;;-0.50;99.90;;;;;;4981708;28;20023;-68
2021/11/11 01:05:16;;;;;;;52.47;16.50;;;-0.50;99.90;;;;;;4981109;28;20117;-68
2021/11/11 01:07:44;;;;;;;46.63;14.60;;;-0.50;99.90;;;;;;4980683;28;20077;-68
2021/11/11 01:10:16;;;;;;;23.90;10.35;;;-0.50;99.90;;;;;;4981645;28;20427;-68
2021/11/11 01:12:44;;;;;;;26.17;10.93;;;-0.50;99.90;;;;;;4981514;28;20033;-68
2021/11/11 01:15:14;;;;;;;28.85;9.80;;;-0.50;99.90;;;;;;4981093;28;20023;-68
2021/11/11 01:17:42;;;;;;;22.10;8.57;;;-0.50;99.90;;;;;;4980906;28;20046;-68
2021/11/11 01:20:10;;;;;;;25.00;9.32;;;-0.50;99.90;;;;;;4980751;28;20019;-68
2021/11/11 01:22:39;;;;;;;22.90;10.35;;;-0.50;99.90;;;;;;4962770;28;20027;-68
2021/11/11 01:25:12;;;;;;;34.65;13.63;;;-0.50;99.90;;;;;;4979927;28;20027;-68
2021/11/11 01:27:40;;;;;;;33.03;12.32;;;-0.60;99.90;;;;;;4979862;28;20110;-68
2021/11/11 01:30:08;;;;;;;32.28;12.55;;;-0.50;99.90;;;;;;4980583;28;20364;-68
2021/11/11 01:32:35;;;;;;;32.15;11.02;;;-0.50;99.90;;;;;;4962555;28;20034;-68
2021/11/11 01:35:03;;;;;;;28.10;10.65;;;-0.50;99.90;;;;;;4962602;28;20309;-68
2021/11/11 01:37:31;;;;;;;22.35;10.20;;;-0.50;99.90;;;;;;4979953;28;20027;-68
2021/11/11 01:39:58;;;;;;;24.98;9.63;;;-0.50;99.90;;;;;;4979571;28;20113;-68
2021/11/11 01:42:26;;;;;;;24.95;11.05;;;-0.60;99.90;;;;;;4980075;28;20023;-68
2021/11/11 01:44:55;;;;;;;24.45;9.88;;;-0.60;99.90;;;;;;4979963;28;20023;-69
2021/11/11 01:47:23;;;;;;;31.33;11.15;;;-0.60;99.90;;;;;;4980377;28;20019;-68
2021/11/11 01:49:50;;;;;;;29.98;11.23;;;-0.70;99.90;;;;;;4980373;28;20443;-68
2021/11/11 01:52:18;;;;;;;27.60;10.98;;;-0.70;99.90;;;;;;4980271;28;20027;-68
2021/11/11 01:54:46;;;;;;;28.13;11.25;;;-0.70;99.90;;;;;;4980226;28;20023;-68
2021/11/11 01:57:14;;;;;;;26.98;11.63;;;-0.70;99.90;;;;;;4980703;28;20315;-68
2021/11/11 01:59:42;;;;;;;34.80;11.98;;;-0.70;99.90;;;;;;4980213;28;20027;-68
2021/11/11 02:02:10;;;;;;;22.70;11.65;;;-0.70;99.90;;;;;;4980510;28;20046;-68
2021/11/11 02:04:38;;;;;;;25.88;10.82;;;-0.70;99.90;;;;;;4979634;28;20027;-68
2021/11/11 02:07:06;;;;;;;29.60;10.57;;;-0.70;99.90;;;;;;4979107;28;20323;-68
2021/11/11 02:09:34;;;;;;;26.67;12.32;;;-0.70;99.90;;;;;;4979082;28;20027;-68
2021/11/11 02:12:02;;;;;;;30.98;12.57;;;-0.70;99.90;;;;;;4978887;28;20367;-68
2021/11/11 02:14:30;;;;;;;33.60;12.55;;;-0.80;99.90;;;;;;4979123;28;20497;-68
2021/11/11 02:16:58;;;;;;;34.38;12.18;;;-0.70;99.90;;;;;;4979173;28;20105;-68
2021/11/11 02:19:26;;;;;;;35.55;12.57;;;-0.80;99.90;;;;;;4978059;28;20428;-68
2021/11/11 02:21:54;;;;;;;30.50;12.82;;;-0.70;99.90;;;;;;4961627;28;20031;-68
2021/11/11 02:24:23;;;;;;;28.83;11.20;;;-0.70;99.90;;;;;;4961809;28;20038;-68
2021/11/11 02:26:51;;;;;;;29.38;11.45;;;-0.70;99.90;;;;;;4961653;28;20423;-68
2021/11/11 02:29:19;;;;;;;24.77;10.30;;;-0.70;99.90;;;;;;4962473;28;20030;-68
2021/11/11 02:31:47;;;;;;;29.50;11.15;;;-0.70;99.90;;;;;;4980094;28;20091;-68
2021/11/11 02:34:18;;;;;;;25.65;11.27;;;-0.70;99.90;;;;;;4962498;28;20026;-68
2021/11/11 02:36:57;;;;;;;25.20;9.85;;;-0.80;99.90;;;;;;4962332;28;20114;-68
2021/11/11 02:39:31;;;;;;;23.17;10.60;;;-0.80;99.90;;;;;;4979462;28;20027;-68
2021/11/11 02:42:00;;;;;;;29.42;11.75;;;-0.80;99.90;;;;;;4962170;28;20042;-68
2021/11/11 02:44:28;;;;;;;31.30;10.95;;;-0.80;99.90;;;;;;4979714;28;20177;-68
2021/11/11 02:46:58;;;;;;;28.60;10.90;;;-0.90;99.90;;;;;;4978787;28;20320;-68
2021/11/11 02:49:36;;;;;;;28.27;10.68;;;-0.90;99.90;;;;;;4961203;28;20027;-68
2021/11/11 02:52:04;;;;;;;26.52;11.07;;;-0.90;99.90;;;;;;4978827;28;20025;-68
2021/11/11 02:54:40;;;;;;;30.42;11.45;;;-0.90;99.90;;;;;;4978391;28;20023;-68
2021/11/11 02:57:28;;;;;;;35.57;12.87;;;-0.90;99.90;;;;;;4978182;28;20481;-68
2021/11/11 02:59:58;;;;;;;30.50;12.50;;;-0.90;99.90;;;;;;4978726;28;20094;-68
2021/11/11 03:02:33;;;;;;;36.28;13.18;;;-0.90;99.90;;;;;;4978091;28;20023;-68
2021/11/11 03:05:05;;;;;;;30.33;11.70;;;-0.80;99.90;;;;;;4978684;28;20029;-68
2021/11/11 03:07:32;;;;;;;33.38;12.88;;;-0.80;99.90;;;;;;4978345;28;20029;-68
2021/11/11 03:10:00;;;;;;;30.25;11.93;;;-0.80;99.90;;;;;;4978719;28;20045;-68
2021/11/11 03:12:28;;;;;;;32.08;12.45;;;-0.80;99.90;;;;;;4961693;28;20033;-68
2021/11/11 03:14:56;;;;;;;31.35;12.13;;;-0.90;99.90;;;;;;4979342;28;20022;-68
2021/11/11 03:17:25;;;;;;;29.63;12.95;;;-0.90;99.90;;;;;;4978833;28;20054;-68
2021/11/11 03:19:53;;;;;;;37.53;14.73;;;-0.90;99.90;;;;;;4978749;28;20037;-68
2021/11/11 03:22:41;;;;;;;31.05;12.82;;;-0.90;99.90;;;;;;4978777;28;20022;-68
2021/11/11 03:25:10;;;;;;;30.27;12.48;;;-0.80;99.90;;;;;;4978490;28;20033;-68
2021/11/11 03:27:38;;;;;;;34.38;12.75;;;-0.70;99.90;;;;;;4978672;28;20041;-68
2021/11/11 03:30:09;;;;;;;39.10;13.40;;;-0.60;99.90;;;;;;4978788;28;20030;-68
2021/11/11 03:32:37;;;;;;;31.80;13.43;;;-0.60;99.90;;;;;;4978261;28;20023;-68
2021/11/11 03:35:05;;;;;;;29.67;11.85;;;-0.50;99.90;;;;;;4977611;28;20030;-68
2021/11/11 03:37:33;;;;;;;32.25;13.63;;;-0.40;99.90;;;;;;4978243;28;20022;-68
2021/11/11 03:40:00;;;;;;;26.05;12.27;;;-0.30;99.90;;;;;;4960710;28;20351;-68
2021/11/11 03:42:28;;;;;;;28.02;12.48;;;-0.20;99.90;;;;;;4978643;28;20355;-68
2021/11/11 03:44:55;;;;;;;29.98;11.50;;;-0.10;99.90;;;;;;4977283;28;20027;-69
2021/11/11 03:47:22;;;;;;;24.60;11.32;;;0.00;99.90;;;;;;4978082;28;20081;-68
2021/11/11 03:49:50;;;;;;;32.22;12.85;;;0.10;99.90;;;;;;4977868;28;20023;-68
2021/11/11 03:52:17;;;;;;;29.20;11.40;;;0.10;99.90;;;;;;4978048;28;20027;-68
2021/11/11 03:54:45;;;;;;;32.17;12.40;;;0.20;99.90;;;;;;4978999;28;20310;-68
2021/11/11 03:57:12;;;;;;;28.20;12.32;;;0.20;99.90;;;;;;4978285;28;20130;-68
2021/11/11 03:59:40;;;;;;;24.25;10.85;;;0.20;99.90;;;;;;4961444;28;20097;-68
2021/11/11 04:02:13;;;;;;;27.45;12.00;;;0.30;99.90;;;;;;4978241;28;20102;-68
2021/11/11 04:04:42;;;;;;;26.23;11.00;;;0.30;99.90;;;;;;4977992;28;20090;-68
2021/11/11 04:07:09;;;;;;;23.65;9.80;;;0.40;99.90;;;;;;4961802;28;20023;-68
2021/11/11 04:09:37;;;;;;;22.25;11.18;;;0.40;99.90;;;;;;4978386;28;20022;-68
2021/11/11 04:12:05;;;;;;;27.80;11.15;;;0.50;99.90;;;;;;4978238;28;20027;-68
2021/11/11 04:14:33;;;;;;;23.60;11.20;;;0.50;99.90;;;;;;4977489;28;20019;-68
2021/11/11 04:17:01;;;;;;;24.90;10.93;;;0.60;99.90;;;;;;4960175;28;20022;-68
2021/11/11 04:19:28;;;;;;;25.50;10.70;;;0.60;99.90;;;;;;4975548;28;20031;-68
2021/11/11 04:21:57;;;;;;;25.77;10.73;;;0.60;99.90;;;;;;4977205;28;20026;-68
2021/11/11 04:24:24;;;;;;;23.48;10.35;;;0.70;99.90;;;;;;4977724;28;20387;-68
2021/11/11 04:26:55;;;;;;;25.23;12.00;;;0.70;99.90;;;;;;4976537;28;20041;-68
2021/11/11 04:29:28;;;;;;;19.88;10.50;;;0.80;99.90;;;;;;4977675;28;20023;-68
2021/11/11 04:32:06;;;;;;;21.73;10.13;;;0.80;99.90;;;;;;4977130;28;20015;-68
2021/11/11 04:34:35;;;;;;;23.38;10.25;;;0.80;99.90;;;;;;4977090;28;20105;-68
2021/11/11 04:48:19;;;;;;;21.05;10.52;;;1.00;99.90;;;;;;4981946;28;20037;-68
2021/11/11 05:04:00;;;;;;;21.42;10.77;;;1.20;99.90;;;;;;4980523;28;20343;-68
2021/11/11 05:06:28;;;;;;;22.33;11.23;;;1.30;99.90;;;;;;4980366;28;20026;-68
2021/11/11 05:08:56;;;;;;;25.83;12.15;;;1.30;99.90;;;;;;4962958;28;20027;-68
2021/11/11 05:11:23;;;;;;;18.90;10.27;;;1.40;99.90;;;;;;4980667;28;20428;-68
2021/11/11 05:13:52;;;;;;;26.80;11.00;;;1.40;99.90;;;;;;4980816;28;20026;-68
2021/11/11 05:16:20;;;;;;;23.08;11.10;;;1.40;99.90;;;;;;4980505;28;20073;-68
2021/11/11 05:18:47;;;;;;;24.95;10.82;;;1.50;99.90;;;;;;4980458;28;20408;-68
2021/11/11 05:21:15;;;;;;;27.27;10.93;;;1.50;99.90;;;;;;4963709;28;20031;-68
2021/11/11 05:23:43;;;;;;;26.77;11.50;;;1.50;99.90;;;;;;4981019;28;20050;-68
2021/11/11 05:26:11;;;;;;;27.08;11.68;;;1.60;99.90;;;;;;4981203;28;20037;-68
2021/11/11 05:28:39;;;;;;;22.83;11.98;;;1.60;99.90;;;;;;4964044;28;20078;-68
2021/11/11 05:31:07;;;;;;;21.55;10.75;;;1.60;99.90;;;;;;4980702;28;20387;-68
2021/11/11 05:33:35;;;;;;;23.98;11.70;;;1.70;99.90;;;;;;4981020;28;20026;-68
2021/11/11 05:36:03;;;;;;;25.17;11.07;;;1.70;99.90;;;;;;4981078;28;20316;-68
2021/11/11 05:38:31;;;;;;;23.17;11.23;;;1.70;99.90;;;;;;4963321;28;20054;-68
2021/11/11 05:40:59;;;;;;;23.33;11.43;;;1.80;99.90;;;;;;4979542;28;20023;-68
2021/11/11 05:43:26;;;;;;;24.55;10.57;;;1.80;99.90;;;;;;4979714;28;20026;-68
2021/11/11 05:46:00;;;;;;;23.65;11.73;;;1.80;99.90;;;;;;4979125;28;20154;-68
2021/11/11 05:48:28;;;;;;;27.02;11.93;;;1.80;99.90;;;;;;4979905;28;20031;-68
2021/11/11 05:50:55;;;;;;;24.77;11.00;;;1.90;99.90;;;;;;4979915;28;20031;-68
2021/11/11 05:53:23;;;;;;;22.95;10.73;;;1.90;99.90;;;;;;4978901;28;20345;-68
2021/11/11 05:55:51;;;;;;;29.75;11.60;;;1.90;99.90;;;;;;4979339;28;20027;-68
2021/11/11 05:58:18;;;;;;;23.65;11.55;;;1.90;99.90;;;;;;4979319;28;20034;-68
2021/11/11 06:00:46;;;;;;;27.17;11.65;;;2.00;99.90;;;;;;4979147;28;20027;-68
2021/11/11 06:03:14;;;;;;;25.17;13.48;;;2.00;99.90;;;;;;4962881;28;20031;-68
2021/11/11 06:05:41;;;;;;;22.35;11.18;;;2.00;99.90;;;;;;4979955;28;20066;-68
2021/11/11 06:08:09;;;;;;;27.90;11.43;;;2.00;99.90;;;;;;4962941;28;20023;-68
2021/11/11 06:10:36;;;;;;;23.45;10.27;;;2.10;99.90;;;;;;4962742;28;20042;-68
2021/11/11 06:13:04;;;;;;;25.80;12.38;;;2.20;99.90;;;;;;4963047;28;20360;-68
2021/11/11 06:15:32;;;;;;;24.38;11.32;;;2.30;99.90;;;;;;4979912;28;20360;-68
2021/11/11 06:17:59;;;;;;;24.63;12.10;;;2.30;99.90;;;;;;4962652;28;20062;-68
2021/11/11 06:20:31;;;;;;;24.45;11.05;;;2.40;99.90;;;;;;4979806;28;20371;-68
2021/11/11 06:23:00;;;;;;;25.98;12.25;;;2.40;99.90;;;;;;4978938;28;20023;-68
2021/11/11 06:25:28;;;;;;;23.02;11.43;;;2.40;99.90;;;;;;4979232;28;20035;-68
2021/11/11 06:27:55;;;;;;;29.02;13.25;;;2.50;99.90;;;;;;4978729;28;20050;-68
2021/11/11 06:30:24;;;;;;;24.13;11.35;;;2.50;99.90;;;;;;4961486;28;20395;-68
2021/11/11 06:32:52;;;;;;;25.92;12.00;;;2.60;99.90;;;;;;4978875;28;20027;-68
2021/11/11 06:35:20;;;;;;;24.38;11.63;;;2.60;99.90;;;;;;4961455;28;20030;-68
2021/11/11 06:37:47;;;;;;;31.15;12.43;;;2.60;99.90;;;;;;4978561;28;20027;-66
2021/11/11 06:40:15;;;;;;;26.45;12.23;;;2.60;99.90;;;;;;4961176;28;20149;-68
2021/11/11 06:42:43;;;;;;;28.63;12.48;;;2.70;99.90;;;;;;4978725;28;20061;-68
2021/11/11 06:45:11;;;;;;;21.90;11.98;;;2.70;99.90;;;;;;4979145;28;20090;-68
2021/11/11 06:47:40;;;;;;;29.48;12.90;;;2.70;99.90;;;;;;4962076;28;20035;-68
2021/11/11 06:50:11;;;;;;;22.33;11.60;;;2.80;99.90;;;;;;4979151;28;20026;-72
2021/11/11 06:52:39;;;;;;;24.70;12.52;;;2.80;99.90;;;;;;4979235;28;20046;-72
2021/11/11 06:55:10;;;;;;;26.50;11.57;;;2.90;99.90;;;;;;4979344;28;20019;-71
2021/11/11 06:57:37;;;;;;;22.10;11.18;;;2.90;99.90;;;;;;4979199;28;20031;-72
2021/11/11 07:00:08;;;;;;;28.92;11.85;;;2.90;99.90;;;;;;4979006;28;20061;-72
2021/11/11 07:02:35;;;;;;;24.38;11.48;;;2.90;99.90;;;;;;4979230;28;20122;-72
2021/11/11 07:05:03;;;;;;;25.48;12.05;;;2.90;99.90;;;;;;4961040;28;20033;-73
2021/11/11 07:07:31;;;;;;;25.48;11.02;;;2.90;99.90;;;;;;4978454;28;20015;-72
2021/11/11 07:09:59;;;;;;;23.83;11.77;;;3.00;99.90;;;;;;4978664;28;20023;-72
2021/11/11 07:12:26;;;;;;;24.50;11.77;;;3.00;99.90;;;;;;4960790;28;20081;-72
2021/11/11 07:14:55;;;;;;;23.20;11.75;;;3.00;99.90;;;;;;4960836;28;20328;-74
2021/11/11 07:17:23;;;;;;;29.83;13.18;;;3.00;99.90;;;;;;4978181;28;20088;-75
2021/11/11 07:19:51;;;;;;;29.33;12.45;;;3.10;99.90;;;;;;4960857;28;20023;-74
2021/11/11 07:22:19;;;;;;;22.85;11.25;;;3.10;99.90;;;;;;4977800;28;20019;-75
2021/11/11 07:24:47;;;;;;;26.77;12.20;;;3.20;99.90;;;;;;4977748;28;20019;-75
2021/11/11 07:27:14;;;;;;;23.55;11.13;;;3.20;99.90;;;;;;4978031;28;20086;-72
2021/11/11 07:29:43;;;;;;;26.48;11.05;;;3.30;99.90;;;;;;4978699;28;20023;-70
2021/11/11 07:32:10;;;;;;;21.40;10.85;;;3.30;99.90;;;;;;4961428;28;20394;-70
2021/11/11 07:34:39;;;;;;;20.08;10.90;;;3.40;99.90;;;;;;4978512;28;20092;-70
2021/11/11 07:37:07;;;;;;;24.90;11.43;;;3.40;99.90;;;;;;4979096;28;20479;-71
2021/11/11 07:39:35;;;;;;;21.52;10.32;;;3.50;99.90;;;;;;4979227;28;20046;-71
2021/11/11 07:42:04;;;;;;;23.98;11.07;;;3.60;99.90;;;;;;4979026;28;20098;-71
2021/11/11 07:44:32;;;;;;;20.55;11.40;;;3.60;99.90;;;;;;4978513;28;20078;-70
2021/11/11 07:47:00;;;;;;;28.42;16.48;;;3.70;99.90;;;;;;4978206;28;20038;-69
2021/11/11 07:49:28;;;;;;;27.88;12.73;;;3.70;99.90;;;;;;4978384;28;20032;-69
2021/11/11 07:51:55;;;;;;;23.90;11.40;;;3.80;99.90;;;;;;4978002;28;20026;-68
2021/11/11 07:54:23;;;;;;;18.17;11.20;;;3.80;99.90;;;;;;4977484;28;20023;-69
2021/11/11 07:56:51;;;;;;;21.70;11.07;;;3.90;99.90;;;;;;4978042;28;20090;-69
2021/11/11 07:59:19;;;;;;;21.77;10.70;;;3.90;99.90;;;;;;4978197;28;20089;-69
2021/11/11 08:01:46;;;;;;;20.52;10.63;;;3.90;99.90;;;;;;4977371;28;20058;-69
2021/11/11 08:04:14;;;;;;;21.35;10.63;;;4.00;99.90;;;;;;4977274;28;20023;-69
2021/11/11 08:06:42;;;;;;;22.50;10.65;;;4.10;99.90;;;;;;4977375;28;20442;-69
2021/11/11 08:09:09;;;;;;;21.90;10.13;;;4.10;99.90;;;;;;4960393;28;20399;-69
2021/11/11 08:11:37;;;;;;;18.17;10.45;;;4.20;99.90;;;;;;4977624;28;20146;-69
2021/11/11 08:14:06;;;;;;;21.73;9.85;;;4.30;99.90;;;;;;4978816;28;20046;-69
2021/11/11 08:16:33;;;;;;;16.48;9.73;;;4.30;99.90;;;;;;4978963;28;20418;-69
2021/11/11 08:19:01;;;;;;;19.52;9.93;;;4.30;99.90;;;;;;4964995;28;20169;-69
2021/11/11 08:21:28;;;;;;;17.90;8.77;;;4.40;99.90;;;;;;4982502;28;20110;-69
2021/11/11 08:23:56;;;;;;;20.25;10.77;;;4.50;99.90;;;;;;4982440;28;20027;-69
2021/11/11 08:26:24;;;;;;;19.55;9.63;;;4.50;99.90;;;;;;4981784;28;20033;-69
2021/11/11 08:28:51;;;;;;;19.60;9.68;;;4.60;99.90;;;;;;4964844;28;20038;-69
2021/11/11 08:31:19;;;;;;;17.98;8.88;;;4.60;99.90;;;;;;4964402;28;20026;-69
2021/11/11 08:33:47;;;;;;;21.30;9.65;;;4.70;99.90;;;;;;4980750;28;20110;-68
2021/11/11 08:36:14;;;;;;;19.52;9.80;;;4.80;99.90;;;;;;4980743;28;20065;-68
2021/11/11 08:38:43;;;;;;;18.25;9.85;;;4.80;99.90;;;;;;4981393;28;20117;-68
2021/11/11 08:41:11;;;;;;;14.90;8.75;;;4.90;99.90;;;;;;4963445;28;20026;-68
2021/11/11 08:43:38;;;;;;;19.48;9.65;;;4.90;99.90;;;;;;4980629;28;20055;-68
2021/11/11 08:46:06;;;;;;;21.02;9.68;;;5.00;99.90;;;;;;4960043;29;20047;-69
2021/11/11 08:48:34;;;;;;;16.15;9.40;;;5.00;99.90;;;;;;4961312;28;20019;-69
2021/11/11 08:51:03;;;;;;;17.45;8.95;;;5.10;99.90;;;;;;4961687;29;20090;-70
2021/11/11 08:53:30;;;;;;;18.90;9.82;;;5.20;99.90;;;;;;4961205;28;20058;-70
2021/11/11 08:55:58;;;;;;;17.65;10.00;;;5.20;99.90;;;;;;4960805;29;20062;-70
2021/11/11 08:58:29;;;;;;;18.13;9.93;;;5.30;99.90;;;;;;4962468;28;20054;-70
2021/11/11 09:01:04;;;;;;;19.27;9.88;;;5.30;99.90;;;;;;4962701;28;20312;-70
2021/11/11 09:03:32;;;;;;;17.13;9.18;;;5.30;99.90;;;;;;4960697;28;20420;-69
2021/11/11 09:06:00;;;;;;;15.32;8.38;;;5.40;99.90;;;;;;4962294;28;20042;-69
2021/11/11 09:08:27;;;;;;;16.65;8.80;;;5.40;99.90;;;;;;4960883;29;20023;-69
2021/11/11 09:10:55;;;;;;;17.73;9.07;;;5.40;99.90;;;;;;4962118;28;20052;-69
2021/11/11 09:13:23;;;;;;;14.93;8.95;;;5.40;99.90;;;;;;4962483;28;20054;-69
2021/11/11 09:15:50;;;;;;;15.38;8.38;;;5.50;99.90;;;;;;4961341;28;20373;-69
2021/11/11 09:18:18;;;;;;;18.10;8.60;;;5.60;99.90;;;;;;4961474;28;20023;-68
2021/11/11 09:20:45;;;;;;;16.58;8.18;;;5.60;99.90;;;;;;4959666;28;20030;-71
2021/11/11 09:23:13;;;;;;;18.50;9.15;;;5.70;99.90;;;;;;4961293;28;20015;-70
2021/11/11 09:25:41;;;;;;;18.95;8.52;;;5.70;99.90;;;;;;4959612;29;20447;-71
2021/11/11 09:28:09;;;;;;;16.42;8.70;;;5.80;99.90;;;;;;4961056;28;20034;-70
2021/11/11 09:30:38;;;;;;;15.50;8.90;;;5.90;99.90;;;;;;4961262;28;20023;-70
2021/11/11 09:33:09;;;;;;;15.30;9.05;;;6.00;99.90;;;;;;4960518;28;20365;-70
2021/11/11 09:35:37;;;;;;;16.98;8.45;;;6.00;99.90;;;;;;4961030;28;20293;-71
2021/11/11 09:38:05;;;;;;;16.75;8.00;;;6.10;99.90;;;;;;4961682;28;20031;-70
2021/11/11 09:40:35;;;;;;;14.05;8.02;;;6.20;99.90;;;;;;4961892;28;20023;-70
2021/11/11 09:43:03;;;;;;;14.93;8.57;;;6.30;99.90;;;;;;4960308;29;20027;-69
2021/11/11 09:45:33;;;;;;;14.05;8.23;;;6.40;99.90;;;;;;4963600;28;20066;-69
2021/11/11 09:48:01;;;;;;;15.23;8.60;;;6.40;99.90;;;;;;4981175;28;20023;-69
2021/11/11 09:50:30;;;;;;;13.63;8.00;;;6.50;99.90;;;;;;4980484;28;20366;-69
2021/11/11 09:53:05;;;;;;;15.05;7.50;;;6.70;99.90;;;;;;4963333;28;20034;-69
2021/11/11 09:58:38;;;;;;;16.77;8.55;;;6.90;99.90;;;;;;4980045;28;20038;-69
2021/11/11 10:01:09;;;;;;;17.60;8.90;;;6.90;99.90;;;;;;4979165;28;20031;-69
2021/11/11 10:03:41;;;;;;;12.20;7.07;;;7.10;99.90;;;;;;4979778;28;20033;-69
2021/11/11 10:06:15;;;;;;;14.57;7.57;;;7.10;99.90;;;;;;4979498;28;20026;-69
2021/11/11 10:08:53;;;;;;;17.15;8.68;;;7.30;99.90;;;;;;4979383;28;20034;-70
2021/11/11 10:11:38;;;;;;;15.70;8.25;;;7.30;99.90;;;;;;4979396;28;20084;-70
2021/11/11 10:14:07;;;;;;;14.20;7.70;;;7.40;99.90;;;;;;4979127;28;20366;-69
2021/11/11 10:16:46;;;;;;;15.27;8.30;;;7.50;99.90;;;;;;4979506;28;20034;-69
2021/11/11 10:19:18;;;;;;;14.48;7.97;;;7.50;99.90;;;;;;4979380;28;20031;-69
2021/11/11 10:21:53;;;;;;;14.07;8.38;;;7.60;99.90;;;;;;4979568;28;20067;-69
2021/11/11 10:24:42;;;;;;;16.33;8.17;;;7.60;99.90;;;;;;4979969;28;20049;-69
2021/11/11 10:27:29;;;;;;;13.90;8.05;;;7.60;99.90;;;;;;4980533;28;20105;-69
2021/11/11 10:30:15;;;;;;;17.02;9.48;;;7.60;99.90;;;;;;4979905;28;20047;-69
2021/11/11 10:32:46;;;;;;;14.60;8.30;;;7.60;99.90;;;;;;4979994;28;20023;-69
2021/11/11 10:35:17;;;;;;;19.88;8.77;;;7.50;99.90;;;;;;4979791;28;20416;-69
2021/11/11 10:37:57;;;;;;;15.65;8.50;;;7.40;99.90;;;;;;4979320;28;20062;-69
2021/11/11 10:40:32;;;;;;;15.88;8.50;;;7.40;99.90;;;;;;4979143;28;20019;-70
2021/11/11 10:43:09;;;;;;;17.02;8.70;;;7.30;99.90;;;;;;4978530;28;20023;-69
2021/11/11 10:45:38;;;;;;;;;;;7.30;99.90;;;;;;4978424;28;20086;-70
2021/11/11 10:48:08;;;;;;;16.67;9.02;;;7.40;99.90;;;;;;4961138;28;19996;-69
2021/11/11 10:50:39;;;;;;;17.95;10.95;;;7.40;99.90;;;;;;4960994;28;20423;-69
2021/11/11 10:53:08;;;;;;;17.60;10.48;;;7.50;99.90;;;;;;4978562;28;20300;-69
2021/11/11 10:55:48;;;;;;;22.00;10.40;;;7.50;99.90;;;;;;4978341;28;20067;-69
2021/11/11 10:58:18;;;;;;;22.10;9.80;;;7.70;99.90;;;;;;4978481;28;20308;-69
2021/11/11 11:00:53;;;;;;;16.50;8.63;;;7.80;99.90;;;;;;4978098;28;20042;-68
2021/11/11 11:03:33;;;;;;;17.30;9.80;;;7.90;99.90;;;;;;4979298;28;20046;-69
2021/11/11 11:06:06;;;;;;;26.48;11.07;;;8.10;99.90;;;;;;4979232;28;20607;-69
2021/11/11 11:08:43;;;;;;;19.33;11.10;;;8.30;99.90;;;;;;4961811;28;20110;-69
2021/11/11 11:11:28;;;;;;;17.58;9.88;;;8.40;99.90;;;;;;4978920;28;20430;-69
2021/11/11 11:14:02;;;;;;;19.05;10.15;;;8.50;99.90;;;;;;4979594;28;20085;-69
2021/11/11 11:16:35;;;;;;;19.05;9.27;;;8.60;99.90;;;;;;4979357;28;20419;-69
2021/11/11 11:19:15;;;;;;;17.98;9.27;;;8.70;99.90;;;;;;4979144;28;20058;-68
2021/11/11 11:21:52;;;;;;;16.95;9.25;;;8.70;99.90;;;;;;4978747;28;20030;-69
2021/11/11 11:24:23;;;;;;;16.55;8.40;;;8.80;99.90;;;;;;4978325;28;20051;-68
2021/11/11 11:27:00;;;;;;;21.15;9.00;;;8.80;99.90;;;;;;4977942;28;20027;-68
2021/11/11 11:29:36;;;;;;;16.52;8.45;;;8.90;99.90;;;;;;4960631;28;20030;-70
2021/11/11 11:32:19;;;;;;;27.02;9.63;;;8.90;99.90;;;;;;4977752;28;20019;-69
2021/11/11 11:34:54;;;;;;;19.42;9.57;;;8.90;99.90;;;;;;4978647;28;20050;-69
2021/11/11 11:37:30;;;;;;;20.67;9.60;;;8.80;99.90;;;;;;4978251;28;20027;-70
2021/11/11 11:39:59;;;;;;;15.13;8.85;;;8.80;99.90;;;;;;4977717;28;20327;-69
2021/11/11 11:42:34;;;;;;;22.08;9.75;;;8.80;99.90;;;;;;4977758;28;20026;-70
2021/11/11 11:45:12;;;;;;;16.48;8.77;;;8.80;99.90;;;;;;4977762;28;20023;-69
2021/11/11 11:47:49;;;;;;;21.10;12.20;;;8.80;99.90;;;;;;4978210;28;20335;-69
2021/11/11 11:50:23;;;;;;;17.33;10.77;;;8.90;99.90;;;;;;4978836;28;20019;-70
2021/11/11 11:53:03;;;;;;;20.60;9.40;;;9.00;99.90;;;;;;4982572;28;20023;-80
2021/11/11 11:58:06;;;;;;;21.85;9.80;;;9.20;99.90;;;;;;4982492;28;20029;-68
2021/11/11 12:16:59;;;;;;;21.23;10.75;;;9.70;99.90;;;;;;4981229;28;20030;-69
2021/11/11 12:40:14;;;;;;;24.45;11.85;;;10.00;99.90;;;;;;4981989;28;20085;-69
2021/11/11 12:42:53;;;;;;;22.35;11.50;;;10.00;99.90;;;;;;4981712;28;20383;-69
2021/11/11 12:45:31;;;;;;;24.70;10.35;;;10.00;99.90;;;;;;4981077;28;20027;-69
2021/11/11 12:48:03;;;;;;;22.95;10.75;;;10.00;99.90;;;;;;4982053;28;20034;-69
2021/11/11 12:50:55;;;;;;;25.58;13.02;;;10.00;99.90;;;;;;4981264;28;20030;-69
2021/11/11 12:53:31;;;;;;;21.52;11.77;;;10.00;99.90;;;;;;4980751;28;20026;-68
2021/11/11 12:56:05;;;;;;;22.55;11.32;;;9.90;99.90;;;;;;4981072;28;20415;-69
2021/11/11 12:58:48;;;;;;;29.27;12.00;;;9.90;99.90;;;;;;4980660;28;20510;-67
2021/11/11 13:01:43;;;;;;;22.95;10.88;;;9.80;99.90;;;;;;4980901;28;20050;-68
2021/11/11 13:04:17;;;;;;;24.88;11.88;;;9.80;99.90;;;;;;4978903;28;20109;-67
2021/11/11 13:06:52;;;;;;;28.33;11.52;;;9.70;99.90;;;;;;4980140;28;20089;-68
2021/11/11 13:09:34;;;;;;;31.67;12.00;;;9.70;99.90;;;;;;4963038;28;20030;-70
2021/11/11 13:12:07;;;;;;;26.85;11.05;;;9.70;99.90;;;;;;4980329;28;20027;-69
2021/11/11 13:14:53;;;;;;;25.92;10.77;;;9.70;99.90;;;;;;4981744;28;20023;-70
2021/11/11 13:17:26;;;;;;;23.42;11.15;;;9.60;99.90;;;;;;4981021;28;20031;-70
2021/11/11 13:20:20;;;;;;;19.98;10.40;;;9.60;99.90;;;;;;4980856;28;20027;-68
2021/11/11 13:25:57;;;;;;;23.38;9.73;;;9.60;99.90;;;;;;4980762;28;20031;-68
2021/11/11 14:00:33;;;;;;;25.52;10.50;;;9.20;99.90;;;;;;4980708;28;20045;-68
2021/11/11 15:57:16;;;;;;;23.35;11.52;;;8.20;99.90;;;;;;4977901;28;20450;-68
2021/11/11 16:00:04;;;;;;;33.10;12.80;;;8.20;99.90;;;;;;4978148;28;20038;-68
2021/11/11 16:27:16;;;;;;;24.35;12.57;;;8.10;99.90;;;;;;4977275;28;20031;-68
2021/11/11 16:29:45;;;;;;;32.58;14.25;;;8.10;99.90;;;;;;4960012;28;20023;-68
2021/11/11 16:32:13;;;;;;;32.63;13.90;;;8.00;99.90;;;;;;4977092;28;20027;-67
2021/11/11 16:34:41;;;;;;;30.42;14.38;;;8.00;99.90;;;;;;4977363;28;20019;-68
2021/11/11 16:37:09;;;;;;;33.13;14.88;;;8.00;99.90;;;;;;4977241;28;20113;-68
2021/11/11 16:39:37;;;;;;;28.77;14.15;;;8.00;99.90;;;;;;4980907;28;20037;-68
2021/11/11 16:42:06;;;;;;;31.67;13.48;;;8.00;99.90;;;;;;4981187;28;20078;-68
2021/11/11 16:44:34;;;;;;;31.30;14.45;;;8.00;99.90;;;;;;4981483;28;20082;-67
2021/11/11 16:47:02;;;;;;;29.85;13.65;;;8.00;99.90;;;;;;4981158;28;20047;-72
2021/11/11 16:49:32;;;;;;;34.45;12.35;;;8.00;99.90;;;;;;4981407;28;20432;-68
2021/11/11 16:52:00;;;;;;;28.33;14.68;;;8.00;99.90;;;;;;4981541;28;20027;-68
2021/11/11 16:54:28;;;;;;;36.38;14.00;;;8.00;99.90;;;;;;4981486;28;20077;-68